sensor_id;sensor_type;location;lat;lon;timestamp;P1;durP1;ratioP1;P2;durP2;ratioP2
6089;SDS011;3073;42.660;23.316;2023-11-21T00:01:32;23.77;;;12.23;;
6089;SDS011;3073;42.660;23.316;2023-11-21T00:03:59;26.60;;;11.77;;
6089;SDS011;3073;42.660;23.316;2023-11-21T00:06:26;26.60;;;12.30;;
6089;SDS011;3073;42.660;23.316;2023-11-21T00:08:55;44.17;;;12.27;;
6089;SDS011;3073;42.660;23.316;2023-11-21T00:11:22;31.10;;;11.97;;
6089;SDS011;3073;42.660;23.316;2023-11-21T00:13:50;31.63;;;13.63;;
6089;SDS011;3073;42.660;23.316;2023-11-21T00:16:17;23.90;;;13.90;;
6089;SDS011;3073;42.660;23.316;2023-11-21T00:18:45;21.93;;;11.47;;
6089;SDS011;3073;42.660;23.316;2023-11-21T00:21:12;35.70;;;12.30;;
6089;SDS011;3073;42.660;23.316;2023-11-21T00:23:39;26.13;;;13.20;;
6089;SDS011;3073;42.660;23.316;2023-11-21T00:26:07;25.47;;;12.20;;
6089;SDS011;3073;42.660;23.316;2023-11-21T00:28:34;23.07;;;13.13;;
6089;SDS011;3073;42.660;23.316;2023-11-21T00:31:00;26.40;;;14.20;;
6089;SDS011;3073;42.660;23.316;2023-11-21T00:33:27;25.10;;;13.40;;
6089;SDS011;3073;42.660;23.316;2023-11-21T00:35:55;31.27;;;13.60;;
6089;SDS011;3073;42.660;23.316;2023-11-21T00:38:22;19.80;;;11.30;;
6089;SDS011;3073;42.660;23.316;2023-11-21T00:40:49;27.00;;;11.27;;
6089;SDS011;3073;42.660;23.316;2023-11-21T00:43:16;28.03;;;12.97;;
6089;SDS011;3073;42.660;23.316;2023-11-21T00:45:43;19.43;;;11.23;;
6089;SDS011;3073;42.660;23.316;2023-11-21T00:48:10;25.27;;;12.47;;
6089;SDS011;3073;42.660;23.316;2023-11-21T00:50:38;24.40;;;11.63;;
6089;SDS011;3073;42.660;23.316;2023-11-21T00:53:07;23.20;;;11.87;;
6089;SDS011;3073;42.660;23.316;2023-11-21T00:55:33;25.73;;;11.83;;
6089;SDS011;3073;42.660;23.316;2023-11-21T00:58:01;24.20;;;11.13;;
6089;SDS011;3073;42.660;23.316;2023-11-21T01:00:29;26.87;;;12.33;;
6089;SDS011;3073;42.660;23.316;2023-11-21T01:02:56;23.30;;;11.03;;
6089;SDS011;3073;42.660;23.316;2023-11-21T01:05:23;22.80;;;11.97;;
6089;SDS011;3073;42.660;23.316;2023-11-21T01:07:50;22.30;;;11.80;;
6089;SDS011;3073;42.660;23.316;2023-11-21T01:10:19;24.13;;;10.80;;
6089;SDS011;3073;42.660;23.316;2023-11-21T01:12:46;23.13;;;11.63;;
6089;SDS011;3073;42.660;23.316;2023-11-21T01:15:14;24.33;;;11.57;;
6089;SDS011;3073;42.660;23.316;2023-11-21T01:17:40;18.50;;;10.43;;
6089;SDS011;3073;42.660;23.316;2023-11-21T01:20:08;19.57;;;11.90;;
6089;SDS011;3073;42.660;23.316;2023-11-21T01:22:38;21.13;;;11.20;;
6089;SDS011;3073;42.660;23.316;2023-11-21T01:25:05;27.50;;;11.37;;
6089;SDS011;3073;42.660;23.316;2023-11-21T01:27:34;29.50;;;13.10;;
6089;SDS011;3073;42.660;23.316;2023-11-21T01:30:02;25.20;;;12.10;;
6089;SDS011;3073;42.660;23.316;2023-11-21T01:32:30;26.10;;;13.53;;
6089;SDS011;3073;42.660;23.316;2023-11-21T01:34:57;21.07;;;12.20;;
6089;SDS011;3073;42.660;23.316;2023-11-21T01:37:24;22.23;;;11.57;;
6089;SDS011;3073;42.660;23.316;2023-11-21T01:39:53;24.70;;;11.70;;
6089;SDS011;3073;42.660;23.316;2023-11-21T01:42:20;19.60;;;11.53;;
6089;SDS011;3073;42.660;23.316;2023-11-21T01:44:48;26.20;;;12.70;;
6089;SDS011;3073;42.660;23.316;2023-11-21T01:47:15;26.13;;;12.47;;
6089;SDS011;3073;42.660;23.316;2023-11-21T01:49:43;22.53;;;12.10;;
6089;SDS011;3073;42.660;23.316;2023-11-21T01:52:12;24.57;;;12.97;;
6089;SDS011;3073;42.660;23.316;2023-11-21T01:54:39;29.50;;;13.20;;
6089;SDS011;3073;42.660;23.316;2023-11-21T01:57:07;27.20;;;13.00;;
6089;SDS011;3073;42.660;23.316;2023-11-21T01:59:35;29.00;;;12.27;;
6089;SDS011;3073;42.660;23.316;2023-11-21T02:02:04;22.10;;;12.33;;
6089;SDS011;3073;42.660;23.316;2023-11-21T02:04:32;24.70;;;12.70;;
6089;SDS011;3073;42.660;23.316;2023-11-21T02:06:59;25.17;;;12.23;;
6089;SDS011;3073;42.660;23.316;2023-11-21T02:09:26;26.00;;;13.00;;
6089;SDS011;3073;42.660;23.316;2023-11-21T02:11:54;25.23;;;13.07;;
6089;SDS011;3073;42.660;23.316;2023-11-21T02:14:21;29.57;;;14.63;;
6089;SDS011;3073;42.660;23.316;2023-11-21T02:16:50;27.47;;;13.60;;
6089;SDS011;3073;42.660;23.316;2023-11-21T02:19:19;25.80;;;13.80;;
6089;SDS011;3073;42.660;23.316;2023-11-21T02:21:49;24.17;;;13.03;;
6089;SDS011;3073;42.660;23.316;2023-11-21T02:24:19;27.30;;;13.50;;
6089;SDS011;3073;42.660;23.316;2023-11-21T02:26:46;26.57;;;13.30;;
6089;SDS011;3073;42.660;23.316;2023-11-21T02:29:13;28.47;;;13.87;;
6089;SDS011;3073;42.660;23.316;2023-11-21T02:31:43;26.80;;;13.30;;
6089;SDS011;3073;42.660;23.316;2023-11-21T02:34:13;23.80;;;13.93;;
6089;SDS011;3073;42.660;23.316;2023-11-21T02:36:41;26.30;;;13.77;;
6089;SDS011;3073;42.660;23.316;2023-11-21T02:39:08;27.63;;;13.43;;
6089;SDS011;3073;42.660;23.316;2023-11-21T02:41:37;27.10;;;13.97;;
6089;SDS011;3073;42.660;23.316;2023-11-21T02:44:05;23.77;;;12.40;;
6089;SDS011;3073;42.660;23.316;2023-11-21T02:46:32;22.43;;;12.23;;
6089;SDS011;3073;42.660;23.316;2023-11-21T02:49:00;27.40;;;13.50;;
6089;SDS011;3073;42.660;23.316;2023-11-21T02:51:27;26.80;;;12.67;;
6089;SDS011;3073;42.660;23.316;2023-11-21T02:53:54;22.87;;;12.93;;
6089;SDS011;3073;42.660;23.316;2023-11-21T02:56:23;26.63;;;13.00;;
6089;SDS011;3073;42.660;23.316;2023-11-21T02:58:52;26.07;;;13.50;;
6089;SDS011;3073;42.660;23.316;2023-11-21T03:01:19;32.10;;;16.50;;
6089;SDS011;3073;42.660;23.316;2023-11-21T03:03:45;28.23;;;15.80;;
6089;SDS011;3073;42.660;23.316;2023-11-21T03:06:12;25.43;;;14.23;;
6089;SDS011;3073;42.660;23.316;2023-11-21T03:08:40;26.00;;;13.80;;
6089;SDS011;3073;42.660;23.316;2023-11-21T03:11:07;24.30;;;13.20;;
6089;SDS011;3073;42.660;23.316;2023-11-21T03:13:34;28.70;;;15.00;;
6089;SDS011;3073;42.660;23.316;2023-11-21T03:16:02;27.93;;;13.70;;
6089;SDS011;3073;42.660;23.316;2023-11-21T03:18:29;31.90;;;14.17;;
6089;SDS011;3073;42.660;23.316;2023-11-21T03:20:56;28.17;;;13.40;;
6089;SDS011;3073;42.660;23.316;2023-11-21T03:23:23;25.43;;;12.60;;
6089;SDS011;3073;42.660;23.316;2023-11-21T03:25:50;25.00;;;13.00;;
6089;SDS011;3073;42.660;23.316;2023-11-21T03:28:17;28.17;;;13.77;;
6089;SDS011;3073;42.660;23.316;2023-11-21T03:30:44;28.40;;;14.50;;
6089;SDS011;3073;42.660;23.316;2023-11-21T03:33:12;34.93;;;14.27;;
6089;SDS011;3073;42.660;23.316;2023-11-21T03:35:39;30.77;;;13.60;;
6089;SDS011;3073;42.660;23.316;2023-11-21T03:38:07;32.53;;;15.73;;
6089;SDS011;3073;42.660;23.316;2023-11-21T03:40:33;29.30;;;15.10;;
6089;SDS011;3073;42.660;23.316;2023-11-21T03:43:00;34.13;;;15.03;;
6089;SDS011;3073;42.660;23.316;2023-11-21T03:45:28;30.60;;;14.80;;
6089;SDS011;3073;42.660;23.316;2023-11-21T03:47:55;33.30;;;15.50;;
6089;SDS011;3073;42.660;23.316;2023-11-21T03:50:23;29.40;;;15.90;;
6089;SDS011;3073;42.660;23.316;2023-11-21T03:52:50;32.83;;;16.73;;
6089;SDS011;3073;42.660;23.316;2023-11-21T03:55:17;27.03;;;14.60;;
6089;SDS011;3073;42.660;23.316;2023-11-21T03:57:43;24.77;;;14.97;;
6089;SDS011;3073;42.660;23.316;2023-11-21T04:00:11;25.43;;;14.13;;
6089;SDS011;3073;42.660;23.316;2023-11-21T04:02:38;30.90;;;14.50;;
6089;SDS011;3073;42.660;23.316;2023-11-21T04:05:05;25.70;;;14.63;;
6089;SDS011;3073;42.660;23.316;2023-11-21T04:07:35;29.20;;;14.10;;
6089;SDS011;3073;42.660;23.316;2023-11-21T04:10:03;31.87;;;15.17;;
6089;SDS011;3073;42.660;23.316;2023-11-21T04:12:32;34.27;;;14.27;;
6089;SDS011;3073;42.660;23.316;2023-11-21T04:14:59;40.67;;;16.80;;
6089;SDS011;3073;42.660;23.316;2023-11-21T04:17:26;34.90;;;19.93;;
6089;SDS011;3073;42.660;23.316;2023-11-21T04:19:53;33.70;;;20.60;;
6089;SDS011;3073;42.660;23.316;2023-11-21T04:22:19;39.70;;;22.60;;
6089;SDS011;3073;42.660;23.316;2023-11-21T04:24:47;36.87;;;22.70;;
6089;SDS011;3073;42.660;23.316;2023-11-21T04:27:15;43.87;;;24.97;;
6089;SDS011;3073;42.660;23.316;2023-11-21T04:29:43;51.27;;;26.87;;
6089;SDS011;3073;42.660;23.316;2023-11-21T04:32:10;52.40;;;29.03;;
6089;SDS011;3073;42.660;23.316;2023-11-21T04:34:37;46.10;;;28.10;;
6089;SDS011;3073;42.660;23.316;2023-11-21T04:37:04;51.10;;;32.60;;
6089;SDS011;3073;42.660;23.316;2023-11-21T04:39:31;65.53;;;37.13;;
6089;SDS011;3073;42.660;23.316;2023-11-21T04:41:59;62.87;;;35.17;;
6089;SDS011;3073;42.660;23.316;2023-11-21T04:44:26;54.53;;;33.57;;
6089;SDS011;3073;42.660;23.316;2023-11-21T04:46:53;48.53;;;26.77;;
6089;SDS011;3073;42.660;23.316;2023-11-21T04:49:20;44.97;;;28.00;;
6089;SDS011;3073;42.660;23.316;2023-11-21T04:51:47;53.23;;;25.10;;
6089;SDS011;3073;42.660;23.316;2023-11-21T04:54:14;41.40;;;24.53;;
6089;SDS011;3073;42.660;23.316;2023-11-21T04:56:41;44.83;;;24.43;;
6089;SDS011;3073;42.660;23.316;2023-11-21T04:59:09;38.33;;;22.90;;
6089;SDS011;3073;42.660;23.316;2023-11-21T05:01:36;40.87;;;22.00;;
6089;SDS011;3073;42.660;23.316;2023-11-21T05:04:04;39.00;;;23.30;;
6089;SDS011;3073;42.660;23.316;2023-11-21T05:06:31;40.57;;;22.20;;
6089;SDS011;3073;42.660;23.316;2023-11-21T05:08:58;31.80;;;21.70;;
6089;SDS011;3073;42.660;23.316;2023-11-21T05:11:25;32.80;;;20.90;;
6089;SDS011;3073;42.660;23.316;2023-11-21T05:13:52;38.77;;;22.60;;
6089;SDS011;3073;42.660;23.316;2023-11-21T05:16:25;36.80;;;21.37;;
6089;SDS011;3073;42.660;23.316;2023-11-21T05:18:53;41.67;;;23.00;;
6089;SDS011;3073;42.660;23.316;2023-11-21T05:21:25;38.70;;;21.03;;
6089;SDS011;3073;42.660;23.316;2023-11-21T05:23:52;42.27;;;22.80;;
6089;SDS011;3073;42.660;23.316;2023-11-21T05:26:19;41.20;;;23.90;;
6089;SDS011;3073;42.660;23.316;2023-11-21T05:28:46;44.43;;;24.50;;
6089;SDS011;3073;42.660;23.316;2023-11-21T05:31:13;43.57;;;22.77;;
6089;SDS011;3073;42.660;23.316;2023-11-21T05:33:41;34.80;;;21.13;;
6089;SDS011;3073;42.660;23.316;2023-11-21T05:36:09;35.57;;;22.10;;
6089;SDS011;3073;42.660;23.316;2023-11-21T05:38:36;43.67;;;23.30;;
6089;SDS011;3073;42.660;23.316;2023-11-21T05:41:06;38.77;;;21.10;;
6089;SDS011;3073;42.660;23.316;2023-11-21T05:43:36;37.70;;;21.20;;
6089;SDS011;3073;42.660;23.316;2023-11-21T05:46:03;35.30;;;19.53;;
6089;SDS011;3073;42.660;23.316;2023-11-21T05:48:30;37.73;;;20.60;;
6089;SDS011;3073;42.660;23.316;2023-11-21T05:50:59;41.43;;;19.73;;
6089;SDS011;3073;42.660;23.316;2023-11-21T05:53:27;37.70;;;19.10;;
6089;SDS011;3073;42.660;23.316;2023-11-21T05:55:54;39.15;;;21.95;;
6089;SDS011;3073;42.660;23.316;2023-11-21T05:58:21;36.10;;;20.20;;
6089;SDS011;3073;42.660;23.316;2023-11-21T06:00:49;41.80;;;18.87;;
6089;SDS011;3073;42.660;23.316;2023-11-21T06:03:15;31.47;;;17.80;;
6089;SDS011;3073;42.660;23.316;2023-11-21T06:05:42;31.80;;;18.47;;
6089;SDS011;3073;42.660;23.316;2023-11-21T06:08:11;36.27;;;19.67;;
6089;SDS011;3073;42.660;23.316;2023-11-21T06:10:38;45.57;;;21.73;;
6089;SDS011;3073;42.660;23.316;2023-11-21T06:13:05;58.63;;;22.53;;
6089;SDS011;3073;42.660;23.316;2023-11-21T06:15:33;49.53;;;17.80;;
6089;SDS011;3073;42.660;23.316;2023-11-21T06:18:00;35.80;;;15.43;;
6089;SDS011;3073;42.660;23.316;2023-11-21T06:20:26;34.93;;;16.40;;
6089;SDS011;3073;42.660;23.316;2023-11-21T06:22:53;36.63;;;15.17;;
6089;SDS011;3073;42.660;23.316;2023-11-21T06:25:21;36.50;;;15.90;;
6089;SDS011;3073;42.660;23.316;2023-11-21T06:27:49;37.30;;;15.90;;
6089;SDS011;3073;42.660;23.316;2023-11-21T06:30:16;30.80;;;15.87;;
6089;SDS011;3073;42.660;23.316;2023-11-21T06:32:45;24.23;;;9.87;;
6089;SDS011;3073;42.660;23.316;2023-11-21T06:35:12;28.53;;;13.70;;
6089;SDS011;3073;42.660;23.316;2023-11-21T06:37:40;14.70;;;8.30;;
6089;SDS011;3073;42.660;23.316;2023-11-21T06:40:12;23.83;;;12.83;;
6089;SDS011;3073;42.660;23.316;2023-11-21T06:42:42;30.93;;;14.00;;
6089;SDS011;3073;42.660;23.316;2023-11-21T06:45:09;30.33;;;13.70;;
6089;SDS011;3073;42.660;23.316;2023-11-21T06:47:36;39.80;;;13.03;;
6089;SDS011;3073;42.660;23.316;2023-11-21T06:50:05;40.37;;;12.60;;
6089;SDS011;3073;42.660;23.316;2023-11-21T06:52:32;23.50;;;11.40;;
6089;SDS011;3073;42.660;23.316;2023-11-21T06:54:59;25.67;;;12.37;;
6089;SDS011;3073;42.660;23.316;2023-11-21T06:57:26;32.70;;;12.20;;
6089;SDS011;3073;42.660;23.316;2023-11-21T06:59:54;27.17;;;12.90;;
6089;SDS011;3073;42.660;23.316;2023-11-21T07:02:22;42.73;;;15.40;;
6089;SDS011;3073;42.660;23.316;2023-11-21T07:04:51;35.60;;;13.70;;
6089;SDS011;3073;42.660;23.316;2023-11-21T07:07:18;33.43;;;14.87;;
6089;SDS011;3073;42.660;23.316;2023-11-21T07:09:45;24.73;;;14.60;;
6089;SDS011;3073;42.660;23.316;2023-11-21T07:12:13;29.33;;;14.70;;
6089;SDS011;3073;42.660;23.316;2023-11-21T07:14:40;29.73;;;14.60;;
6089;SDS011;3073;42.660;23.316;2023-11-21T07:17:11;25.80;;;13.93;;
6089;SDS011;3073;42.660;23.316;2023-11-21T07:19:38;31.10;;;14.97;;
6089;SDS011;3073;42.660;23.316;2023-11-21T07:22:06;29.17;;;14.97;;
6089;SDS011;3073;42.660;23.316;2023-11-21T07:24:34;26.23;;;14.20;;
6089;SDS011;3073;42.660;23.316;2023-11-21T07:27:02;31.63;;;14.40;;
6089;SDS011;3073;42.660;23.316;2023-11-21T07:29:30;30.50;;;14.53;;
6089;SDS011;3073;42.660;23.316;2023-11-21T07:31:58;38.10;;;15.30;;
6089;SDS011;3073;42.660;23.316;2023-11-21T07:34:27;34.50;;;11.63;;
6089;SDS011;3073;42.660;23.316;2023-11-21T07:36:54;23.57;;;13.20;;
6089;SDS011;3073;42.660;23.316;2023-11-21T07:39:20;27.27;;;13.17;;
6089;SDS011;3073;42.660;23.316;2023-11-21T07:41:47;36.90;;;13.00;;
6089;SDS011;3073;42.660;23.316;2023-11-21T07:44:15;40.00;;;13.30;;
6089;SDS011;3073;42.660;23.316;2023-11-21T07:46:43;28.77;;;12.53;;
6089;SDS011;3073;42.660;23.316;2023-11-21T07:49:10;36.50;;;14.07;;
6089;SDS011;3073;42.660;23.316;2023-11-21T07:51:41;24.53;;;13.03;;
6089;SDS011;3073;42.660;23.316;2023-11-21T07:54:08;22.47;;;13.70;;
6089;SDS011;3073;42.660;23.316;2023-11-21T07:56:36;26.77;;;14.10;;
6089;SDS011;3073;42.660;23.316;2023-11-21T07:59:03;53.57;;;14.23;;
6089;SDS011;3073;42.660;23.316;2023-11-21T08:01:29;29.03;;;14.10;;
6089;SDS011;3073;42.660;23.316;2023-11-21T08:03:57;42.13;;;15.93;;
6089;SDS011;3073;42.660;23.316;2023-11-21T08:06:27;31.80;;;14.07;;
6089;SDS011;3073;42.660;23.316;2023-11-21T08:08:55;31.03;;;15.37;;
6089;SDS011;3073;42.660;23.316;2023-11-21T08:11:22;31.97;;;14.87;;
6089;SDS011;3073;42.660;23.316;2023-11-21T08:13:48;26.83;;;13.77;;
6089;SDS011;3073;42.660;23.316;2023-11-21T08:16:15;39.17;;;14.63;;
6089;SDS011;3073;42.660;23.316;2023-11-21T08:18:42;31.60;;;16.73;;
6089;SDS011;3073;42.660;23.316;2023-11-21T08:21:09;32.20;;;18.43;;
6089;SDS011;3073;42.660;23.316;2023-11-21T08:23:37;44.67;;;16.40;;
6089;SDS011;3073;42.660;23.316;2023-11-21T08:26:05;25.53;;;14.30;;
6089;SDS011;3073;42.660;23.316;2023-11-21T08:28:34;31.43;;;15.53;;
6089;SDS011;3073;42.660;23.316;2023-11-21T08:31:00;27.83;;;15.67;;
6089;SDS011;3073;42.660;23.316;2023-11-21T08:33:27;25.73;;;15.30;;
6089;SDS011;3073;42.660;23.316;2023-11-21T08:35:54;28.67;;;15.80;;
6089;SDS011;3073;42.660;23.316;2023-11-21T08:38:21;31.67;;;15.33;;
6089;SDS011;3073;42.660;23.316;2023-11-21T08:40:48;33.90;;;16.70;;
6089;SDS011;3073;42.660;23.316;2023-11-21T08:43:17;41.53;;;14.83;;
6089;SDS011;3073;42.660;23.316;2023-11-21T08:45:45;26.60;;;15.00;;
6089;SDS011;3073;42.660;23.316;2023-11-21T08:48:12;28.53;;;14.63;;
6089;SDS011;3073;42.660;23.316;2023-11-21T08:50:38;30.93;;;14.23;;
6089;SDS011;3073;42.660;23.316;2023-11-21T08:53:05;26.77;;;14.13;;
6089;SDS011;3073;42.660;23.316;2023-11-21T08:55:32;39.50;;;15.63;;
6089;SDS011;3073;42.660;23.316;2023-11-21T08:58:02;30.90;;;15.73;;
6089;SDS011;3073;42.660;23.316;2023-11-21T09:00:32;29.57;;;15.23;;
6089;SDS011;3073;42.660;23.316;2023-11-21T09:03:00;29.03;;;16.47;;
6089;SDS011;3073;42.660;23.316;2023-11-21T09:05:27;33.90;;;16.50;;
6089;SDS011;3073;42.660;23.316;2023-11-21T09:07:56;25.87;;;15.20;;
6089;SDS011;3073;42.660;23.316;2023-11-21T09:10:23;32.30;;;14.07;;
6089;SDS011;3073;42.660;23.316;2023-11-21T09:12:50;29.20;;;16.57;;
6089;SDS011;3073;42.660;23.316;2023-11-21T09:15:18;35.30;;;16.07;;
6089;SDS011;3073;42.660;23.316;2023-11-21T09:17:46;28.63;;;15.43;;
6089;SDS011;3073;42.660;23.316;2023-11-21T09:20:13;28.13;;;13.47;;
6089;SDS011;3073;42.660;23.316;2023-11-21T09:22:41;22.13;;;13.33;;
6089;SDS011;3073;42.660;23.316;2023-11-21T09:25:09;31.33;;;14.17;;
6089;SDS011;3073;42.660;23.316;2023-11-21T09:27:36;23.70;;;13.10;;
6089;SDS011;3073;42.660;23.316;2023-11-21T09:30:04;21.80;;;13.43;;
6089;SDS011;3073;42.660;23.316;2023-11-21T09:32:34;28.70;;;12.30;;
6089;SDS011;3073;42.660;23.316;2023-11-21T09:35:03;22.67;;;12.87;;
6089;SDS011;3073;42.660;23.316;2023-11-21T09:37:33;25.90;;;13.00;;
6089;SDS011;3073;42.660;23.316;2023-11-21T09:40:03;26.00;;;14.37;;
6089;SDS011;3073;42.660;23.316;2023-11-21T09:42:32;23.40;;;13.93;;
6089;SDS011;3073;42.660;23.316;2023-11-21T09:45:06;30.33;;;14.90;;
6089;SDS011;3073;42.660;23.316;2023-11-21T09:47:39;29.33;;;16.20;;
6089;SDS011;3073;42.660;23.316;2023-11-21T09:50:07;28.30;;;14.63;;
6089;SDS011;3073;42.660;23.316;2023-11-21T09:52:38;33.20;;;15.67;;
6089;SDS011;3073;42.660;23.316;2023-11-21T09:55:14;34.93;;;15.97;;
6089;SDS011;3073;42.660;23.316;2023-11-21T09:57:44;27.70;;;13.80;;
6089;SDS011;3073;42.660;23.316;2023-11-21T10:00:14;31.83;;;14.20;;
6089;SDS011;3073;42.660;23.316;2023-11-21T10:02:43;31.57;;;14.93;;
6089;SDS011;3073;42.660;23.316;2023-11-21T10:05:11;30.53;;;13.13;;
6089;SDS011;3073;42.660;23.316;2023-11-21T10:07:40;24.17;;;13.50;;
6089;SDS011;3073;42.660;23.316;2023-11-21T10:10:12;23.87;;;13.67;;
6089;SDS011;3073;42.660;23.316;2023-11-21T10:12:42;38.90;;;15.87;;
6089;SDS011;3073;42.660;23.316;2023-11-21T10:15:14;35.03;;;14.53;;
6089;SDS011;3073;42.660;23.316;2023-11-21T10:17:43;21.23;;;13.03;;
6089;SDS011;3073;42.660;23.316;2023-11-21T10:20:14;25.90;;;14.97;;
6089;SDS011;3073;42.660;23.316;2023-11-21T10:22:41;34.30;;;14.30;;
6089;SDS011;3073;42.660;23.316;2023-11-21T10:25:08;38.33;;;14.37;;
6089;SDS011;3073;42.660;23.316;2023-11-21T10:27:36;28.17;;;13.43;;
6089;SDS011;3073;42.660;23.316;2023-11-21T10:30:04;22.70;;;13.00;;
6089;SDS011;3073;42.660;23.316;2023-11-21T10:32:32;23.77;;;13.80;;
6089;SDS011;3073;42.660;23.316;2023-11-21T10:34:59;32.27;;;15.87;;
6089;SDS011;3073;42.660;23.316;2023-11-21T10:37:33;29.43;;;15.80;;
6089;SDS011;3073;42.660;23.316;2023-11-21T10:39:59;37.07;;;17.10;;
6089;SDS011;3073;42.660;23.316;2023-11-21T10:42:26;31.33;;;16.83;;
6089;SDS011;3073;42.660;23.316;2023-11-21T10:44:53;39.37;;;19.00;;
6089;SDS011;3073;42.660;23.316;2023-11-21T10:47:21;33.73;;;18.60;;
6089;SDS011;3073;42.660;23.316;2023-11-21T10:49:49;36.40;;;19.27;;
6089;SDS011;3073;42.660;23.316;2023-11-21T10:52:16;36.10;;;20.27;;
6089;SDS011;3073;42.660;23.316;2023-11-21T10:54:47;34.30;;;20.50;;
6089;SDS011;3073;42.660;23.316;2023-11-21T10:57:18;32.80;;;21.07;;
6089;SDS011;3073;42.660;23.316;2023-11-21T10:59:47;47.13;;;20.73;;
6089;SDS011;3073;42.660;23.316;2023-11-21T11:02:18;37.13;;;21.53;;
6089;SDS011;3073;42.660;23.316;2023-11-21T11:04:50;52.70;;;23.40;;
6089;SDS011;3073;42.660;23.316;2023-11-21T11:07:20;52.27;;;25.97;;
6089;SDS011;3073;42.660;23.316;2023-11-21T11:09:53;41.97;;;23.00;;
6089;SDS011;3073;42.660;23.316;2023-11-21T11:12:21;35.27;;;23.20;;
6089;SDS011;3073;42.660;23.316;2023-11-21T11:14:47;40.97;;;23.80;;
6089;SDS011;3073;42.660;23.316;2023-11-21T11:17:15;42.73;;;23.30;;
6089;SDS011;3073;42.660;23.316;2023-11-21T11:19:45;49.37;;;24.10;;
6089;SDS011;3073;42.660;23.316;2023-11-21T11:22:18;36.00;;;21.40;;
6089;SDS011;3073;42.660;23.316;2023-11-21T11:25:07;38.90;;;22.10;;
6089;SDS011;3073;42.660;23.316;2023-11-21T11:27:48;37.77;;;21.23;;
6089;SDS011;3073;42.660;23.316;2023-11-21T11:30:26;45.70;;;21.77;;
6089;SDS011;3073;42.660;23.316;2023-11-21T11:33:05;48.57;;;22.60;;
6089;SDS011;3073;42.660;23.316;2023-11-21T11:35:38;35.17;;;21.60;;
6089;SDS011;3073;42.660;23.316;2023-11-21T11:38:13;36.73;;;20.63;;
6089;SDS011;3073;42.660;23.316;2023-11-21T11:40:44;41.57;;;20.43;;
6089;SDS011;3073;42.660;23.316;2023-11-21T11:43:13;42.77;;;21.10;;
6089;SDS011;3073;42.660;23.316;2023-11-21T11:45:51;49.33;;;21.80;;
6089;SDS011;3073;42.660;23.316;2023-11-21T11:48:19;35.90;;;17.60;;
6089;SDS011;3073;42.660;23.316;2023-11-21T11:51:01;27.20;;;15.10;;
6089;SDS011;3073;42.660;23.316;2023-11-21T11:53:32;35.93;;;15.93;;
6089;SDS011;3073;42.660;23.316;2023-11-21T11:56:25;36.30;;;16.90;;
6089;SDS011;3073;42.660;23.316;2023-11-21T11:58:53;37.00;;;17.80;;
6089;SDS011;3073;42.660;23.316;2023-11-21T12:01:21;29.30;;;16.20;;
6089;SDS011;3073;42.660;23.316;2023-11-21T12:06:56;25.60;;;15.33;;
6089;SDS011;3073;42.660;23.316;2023-11-21T12:09:25;26.97;;;16.63;;
6089;SDS011;3073;42.660;23.316;2023-11-21T12:11:54;33.47;;;18.67;;
6089;SDS011;3073;42.660;23.316;2023-11-21T12:14:22;32.90;;;19.87;;
6089;SDS011;3073;42.660;23.316;2023-11-21T12:16:49;37.37;;;20.70;;
6089;SDS011;3073;42.660;23.316;2023-11-21T12:19:17;36.73;;;21.77;;
6089;SDS011;3073;42.660;23.316;2023-11-21T12:21:46;40.37;;;22.73;;
6089;SDS011;3073;42.660;23.316;2023-11-21T12:24:13;37.17;;;22.70;;
6089;SDS011;3073;42.660;23.316;2023-11-21T12:26:41;43.77;;;22.80;;
6089;SDS011;3073;42.660;23.316;2023-11-21T12:29:10;42.53;;;23.53;;
6089;SDS011;3073;42.660;23.316;2023-11-21T12:31:37;38.97;;;23.77;;
6089;SDS011;3073;42.660;23.316;2023-11-21T12:34:05;42.27;;;23.10;;
6089;SDS011;3073;42.660;23.316;2023-11-21T12:36:34;46.33;;;23.33;;
6089;SDS011;3073;42.660;23.316;2023-11-21T12:39:02;38.93;;;23.50;;
6089;SDS011;3073;42.660;23.316;2023-11-21T12:41:29;47.87;;;26.03;;
6089;SDS011;3073;42.660;23.316;2023-11-21T12:43:56;49.07;;;24.93;;
6089;SDS011;3073;42.660;23.316;2023-11-21T12:46:25;39.50;;;23.47;;
6089;SDS011;3073;42.660;23.316;2023-11-21T12:48:55;40.43;;;24.03;;
6089;SDS011;3073;42.660;23.316;2023-11-21T12:51:23;42.30;;;23.97;;
6089;SDS011;3073;42.660;23.316;2023-11-21T12:53:50;54.23;;;24.37;;
6089;SDS011;3073;42.660;23.316;2023-11-21T12:56:18;49.00;;;26.23;;
6089;SDS011;3073;42.660;23.316;2023-11-21T12:58:48;48.60;;;25.20;;
6089;SDS011;3073;42.660;23.316;2023-11-21T13:01:15;46.37;;;24.27;;
6089;SDS011;3073;42.660;23.316;2023-11-21T13:03:47;42.60;;;25.10;;
6089;SDS011;3073;42.660;23.316;2023-11-21T13:06:16;48.70;;;26.10;;
6089;SDS011;3073;42.660;23.316;2023-11-21T13:08:45;45.50;;;26.00;;
6089;SDS011;3073;42.660;23.316;2023-11-21T13:11:12;49.43;;;27.20;;
6089;SDS011;3073;42.660;23.316;2023-11-21T13:13:40;58.53;;;27.47;;
6089;SDS011;3073;42.660;23.316;2023-11-21T13:16:10;51.33;;;26.00;;
6089;SDS011;3073;42.660;23.316;2023-11-21T13:18:37;57.00;;;27.23;;
6089;SDS011;3073;42.660;23.316;2023-11-21T13:21:08;51.90;;;26.40;;
6089;SDS011;3073;42.660;23.316;2023-11-21T13:23:38;51.03;;;27.20;;
6089;SDS011;3073;42.660;23.316;2023-11-21T13:26:06;43.40;;;26.20;;
6089;SDS011;3073;42.660;23.316;2023-11-21T13:28:34;50.10;;;25.43;;
6089;SDS011;3073;42.660;23.316;2023-11-21T13:31:02;46.37;;;26.67;;
6089;SDS011;3073;42.660;23.316;2023-11-21T13:33:34;45.43;;;27.07;;
6089;SDS011;3073;42.660;23.316;2023-11-21T13:36:03;49.37;;;28.30;;
6089;SDS011;3073;42.660;23.316;2023-11-21T13:38:34;58.23;;;29.33;;
6089;SDS011;3073;42.660;23.316;2023-11-21T13:41:02;49.50;;;27.60;;
6089;SDS011;3073;42.660;23.316;2023-11-21T13:43:35;52.57;;;26.80;;
6089;SDS011;3073;42.660;23.316;2023-11-21T13:46:02;45.50;;;27.57;;
6089;SDS011;3073;42.660;23.316;2023-11-21T13:48:40;47.03;;;27.30;;
6089;SDS011;3073;42.660;23.316;2023-11-21T13:51:08;54.17;;;26.90;;
6089;SDS011;3073;42.660;23.316;2023-11-21T13:53:43;45.47;;;28.23;;
6089;SDS011;3073;42.660;23.316;2023-11-21T13:56:13;49.00;;;26.97;;
6089;SDS011;3073;42.660;23.316;2023-11-21T13:58:49;47.50;;;27.83;;
6089;SDS011;3073;42.660;23.316;2023-11-21T14:01:21;61.80;;;30.17;;
6089;SDS011;3073;42.660;23.316;2023-11-21T14:04:10;50.67;;;29.63;;
6089;SDS011;3073;42.660;23.316;2023-11-21T14:06:45;52.57;;;28.63;;
6089;SDS011;3073;42.660;23.316;2023-11-21T14:09:21;58.20;;;29.90;;
6089;SDS011;3073;42.660;23.316;2023-11-21T14:11:50;53.07;;;29.70;;
6089;SDS011;3073;42.660;23.316;2023-11-21T14:14:19;51.43;;;29.57;;
6089;SDS011;3073;42.660;23.316;2023-11-21T14:16:50;56.53;;;31.00;;
6089;SDS011;3073;42.660;23.316;2023-11-21T14:19:17;62.17;;;30.67;;
6089;SDS011;3073;42.660;23.316;2023-11-21T14:21:44;53.40;;;31.73;;
6089;SDS011;3073;42.660;23.316;2023-11-21T14:24:13;59.80;;;31.03;;
6089;SDS011;3073;42.660;23.316;2023-11-21T14:26:44;57.57;;;32.20;;
6089;SDS011;3073;42.660;23.316;2023-11-21T14:29:12;61.07;;;33.27;;
6089;SDS011;3073;42.660;23.316;2023-11-21T14:31:42;60.40;;;33.07;;
6089;SDS011;3073;42.660;23.316;2023-11-21T14:34:10;61.83;;;33.93;;
6089;SDS011;3073;42.660;23.316;2023-11-21T14:36:37;59.13;;;31.80;;
6089;SDS011;3073;42.660;23.316;2023-11-21T14:39:05;60.53;;;33.33;;
6089;SDS011;3073;42.660;23.316;2023-11-21T14:41:36;68.00;;;34.70;;
6089;SDS011;3073;42.660;23.316;2023-11-21T14:44:06;64.70;;;35.77;;
6089;SDS011;3073;42.660;23.316;2023-11-21T14:46:37;61.73;;;33.57;;